createdAt,value
2022-12-16T00:01:45.784Z,94856.63
2022-12-16T00:04:13.176Z,94786.53
2022-12-16T00:06:40.051Z,94841.16
2022-12-16T00:09:06.976Z,94855.41
2022-12-16T00:11:34.063Z,94847.03
2022-12-16T00:14:01.829Z,94847.84
2022-12-16T00:16:29.225Z,94799.34
2022-12-16T00:18:56.351Z,94756.72
2022-12-16T00:21:28.829Z,94856.03
2022-12-16T00:23:57.559Z,94702.13
2022-12-16T00:26:24.916Z,94794.97
2022-12-16T00:28:51.862Z,94730.88
2022-12-16T00:31:19.299Z,94814.00
2022-12-16T00:33:46.400Z,94836.50
2022-12-16T00:36:13.662Z,94842.38
2022-12-16T00:38:40.715Z,94827.03
2022-12-16T00:41:08.236Z,94770.53
2022-12-16T00:43:35.534Z,94774.00
2022-12-16T00:46:03.044Z,94838.59
2022-12-16T00:48:31.727Z,94838.59
2022-12-16T00:50:58.650Z,94789.19
2022-12-16T00:53:25.615Z,94792.81
2022-12-16T00:56:01.538Z,94809.72
2022-12-16T00:58:28.757Z,94805.31
2022-12-16T01:00:55.829Z,94794.72
2022-12-16T01:03:22.986Z,94812.34
2022-12-16T01:05:50.068Z,94772.38
2022-12-16T01:08:17.822Z,94762.44
2022-12-16T01:10:51.649Z,94811.38
2022-12-16T01:13:20.064Z,94808.47
2022-12-16T01:15:47.372Z,94826.91
2022-12-16T01:18:15.335Z,94809.13
2022-12-16T01:20:42.395Z,94843.72
2022-12-16T01:23:09.837Z,94789.06
2022-12-16T01:25:36.996Z,94836.06
2022-12-16T01:28:04.241Z,94808.06
2022-12-16T01:30:31.552Z,94750.72
2022-12-16T01:32:58.414Z,94814.09
2022-12-16T01:38:13.350Z,94760.88
2022-12-16T01:40:40.406Z,94787.75
2022-12-16T01:43:13.969Z,94799.63
2022-12-16T01:45:41.251Z,94796.72
2022-12-16T01:48:19.180Z,94803.13
2022-12-16T01:50:46.712Z,94792.28
2022-12-16T01:53:14.266Z,94815.69
2022-12-16T01:55:48.996Z,94794.63
2022-12-16T01:58:23.945Z,94798.59
2022-12-16T02:00:51.376Z,94805.09
2022-12-16T02:03:18.969Z,94805.25
2022-12-16T02:05:48.235Z,94643.59
2022-12-16T02:08:16.234Z,94801.13
2022-12-16T02:10:43.060Z,94778.56
2022-12-16T02:13:26.562Z,94767.59
2022-12-16T02:16:40.978Z,94767.78
2022-12-16T02:19:41.466Z,94782.41
2022-12-16T02:22:36.054Z,94773.28
2022-12-16T02:25:09.129Z,94792.19
2022-12-16T02:28:11.900Z,94773.22
2022-12-16T02:30:55.797Z,94768.38
2022-12-16T02:33:37.818Z,94797.81
2022-12-16T02:36:08.090Z,94764.00
2022-12-16T02:39:07.403Z,94771.72
2022-12-16T02:41:53.289Z,94778.09
2022-12-16T02:44:48.430Z,94798.84
2022-12-16T02:47:15.864Z,94781.97
2022-12-16T02:49:49.038Z,94801.97
2022-12-16T02:52:19.918Z,94803.41
2022-12-16T02:54:49.008Z,94775.06
2022-12-16T02:57:28.294Z,94824.03
2022-12-16T03:00:06.079Z,94788.69
2022-12-16T03:02:36.538Z,94838.59
2022-12-16T03:05:10.773Z,94805.44
2022-12-16T03:07:41.466Z,94740.75
2022-12-16T03:10:12.553Z,94793.97
2022-12-16T03:12:43.697Z,94751.66
2022-12-16T03:15:14.031Z,94789.06
2022-12-16T03:17:42.309Z,94781.44
2022-12-16T03:20:18.367Z,94771.94
2022-12-16T03:22:48.540Z,94763.72
2022-12-16T03:25:16.537Z,94782.19
2022-12-16T03:27:57.684Z,94770.94
2022-12-16T03:30:33.341Z,94768.50
2022-12-16T03:33:05.383Z,94739.31
2022-12-16T03:35:35.445Z,94767.47
2022-12-16T03:38:06.534Z,94765.56
2022-12-16T03:40:34.804Z,94792.56
2022-12-16T03:43:03.416Z,94794.22
2022-12-16T03:45:39.245Z,94797.81
2022-12-16T03:48:11.632Z,94789.78
2022-12-16T03:50:39.752Z,94783.97
2022-12-16T03:53:07.717Z,94810.53
2022-12-16T03:55:35.557Z,94782.16
2022-12-16T03:58:02.648Z,94816.03
2022-12-16T04:00:30.017Z,94747.75
2022-12-16T04:02:57.573Z,94827.81
2022-12-16T04:05:26.693Z,94807.56
2022-12-16T04:08:00.238Z,94817.38
2022-12-16T04:10:48.002Z,94818.56
2022-12-16T04:13:34.097Z,94803.34
2022-12-16T04:16:19.948Z,94781.81
2022-12-16T04:19:06.720Z,94736.16
2022-12-16T04:21:52.857Z,94812.84
2022-12-16T04:24:24.673Z,94813.38
2022-12-16T04:27:15.326Z,94763.31
2022-12-16T04:30:02.427Z,94802.34
2022-12-16T04:32:51.661Z,94771.97
2022-12-16T04:35:37.242Z,94815.91
2022-12-16T04:38:23.946Z,94805.34
2022-12-16T04:41:09.653Z,94798.06
2022-12-16T04:43:55.615Z,94747.38
2022-12-16T04:46:41.505Z,94742.16
2022-12-16T04:49:27.448Z,94768.06
2022-12-16T04:52:13.081Z,94781.84
2022-12-16T04:54:58.885Z,94791.28
2022-12-16T04:57:44.792Z,94787.03
2022-12-16T05:00:31.384Z,94764.94
2022-12-16T05:03:17.027Z,94765.97
2022-12-16T05:06:02.520Z,94794.44
2022-12-16T05:08:48.458Z,94779.28
2022-12-16T05:11:34.017Z,94801.56
2022-12-16T05:14:19.496Z,94808.88
2022-12-16T05:17:05.120Z,94792.78
2022-12-16T05:19:50.859Z,94807.84
2022-12-16T05:22:36.486Z,94809.38
2022-12-16T05:25:23.127Z,94744.03
2022-12-16T05:28:10.189Z,94798.88
2022-12-16T05:30:56.400Z,94817.53
2022-12-16T05:33:43.179Z,94826.16
2022-12-16T05:36:28.713Z,94833.03
2022-12-16T05:39:14.373Z,94826.69
2022-12-16T05:41:59.746Z,94821.00
2022-12-16T05:44:45.453Z,94825.88
2022-12-16T05:47:31.212Z,94835.56
2022-12-16T05:50:16.803Z,94786.19
2022-12-16T05:53:13.893Z,94842.50
2022-12-16T05:56:01.664Z,94801.69
2022-12-16T05:58:48.189Z,94844.50
2022-12-16T06:01:34.180Z,94810.91
2022-12-16T06:04:19.841Z,94851.66
2022-12-16T06:07:06.076Z,94865.50
2022-12-16T06:09:56.636Z,94868.91
2022-12-16T06:12:43.106Z,94878.00
2022-12-16T06:15:29.870Z,94877.44
2022-12-16T06:18:15.617Z,94857.19
2022-12-16T06:21:02.156Z,94881.97
2022-12-16T06:23:47.783Z,94890.50
2022-12-16T06:26:33.555Z,94890.72
2022-12-16T06:29:19.102Z,94858.84
2022-12-16T06:32:05.031Z,94866.66
2022-12-16T06:34:50.977Z,94852.81
2022-12-16T06:37:36.584Z,94845.31
2022-12-16T06:40:22.777Z,94855.13
2022-12-16T06:43:08.364Z,94846.03
2022-12-16T06:45:54.341Z,94881.13
2022-12-16T06:48:39.687Z,94866.66
2022-12-16T06:51:25.438Z,94852.50
2022-12-16T06:54:11.467Z,94870.44
2022-12-16T06:56:58.245Z,94857.78
2022-12-16T06:59:43.916Z,94858.91
2022-12-16T07:02:30.148Z,94861.19
2022-12-16T07:05:15.806Z,94856.06
2022-12-16T07:08:09.486Z,94854.56
2022-12-16T07:11:00.343Z,94856.53
2022-12-16T07:13:55.886Z,94890.47
2022-12-16T07:16:41.700Z,94873.19
2022-12-16T07:19:27.463Z,94863.63
2022-12-16T07:22:13.163Z,94874.94
2022-12-16T07:24:58.851Z,94874.94
2022-12-16T07:27:44.739Z,94910.06
2022-12-16T07:30:30.891Z,94825.78
2022-12-16T07:33:16.650Z,94812.63
2022-12-16T07:36:02.318Z,94865.38
2022-12-16T07:38:48.109Z,94868.38
2022-12-16T07:41:33.982Z,94835.22
2022-12-16T07:44:23.195Z,94887.63
2022-12-16T07:47:08.956Z,94840.78
2022-12-16T07:49:55.435Z,94826.50
2022-12-16T07:52:41.907Z,94863.91
2022-12-16T07:55:28.060Z,94840.66
2022-12-16T07:58:13.811Z,94869.53
2022-12-16T08:01:06.287Z,94901.91
2022-12-16T08:03:54.660Z,94855.81
2022-12-16T08:06:42.255Z,94857.00
2022-12-16T08:09:28.024Z,94871.06
2022-12-16T08:12:18.376Z,94817.47
2022-12-16T08:15:03.771Z,94774.25
2022-12-16T08:17:49.376Z,94877.91
2022-12-16T08:20:34.937Z,94887.06
2022-12-16T08:23:20.942Z,94861.50
2022-12-16T08:26:06.580Z,94928.56
2022-12-16T08:28:52.678Z,94845.09
2022-12-16T08:31:38.389Z,94858.41
2022-12-16T08:34:24.437Z,94884.56
2022-12-16T08:37:09.978Z,94886.16
2022-12-16T08:40:18.043Z,94811.03
2022-12-16T08:43:01.490Z,94805.59
2022-12-16T08:45:47.350Z,94853.94
2022-12-16T08:48:33.211Z,94889.81
2022-12-16T08:51:26.390Z,94849.66
2022-12-16T08:54:12.040Z,94887.13
2022-12-16T08:56:57.843Z,94828.00
2022-12-16T08:59:44.567Z,94700.13
2022-12-16T09:02:31.281Z,94857.63
2022-12-16T09:05:17.130Z,94821.91
2022-12-16T09:08:02.895Z,94811.22
2022-12-16T09:10:48.543Z,94771.72
2022-12-16T09:13:35.298Z,94736.19
2022-12-16T09:16:21.793Z,94825.19
2022-12-16T09:19:07.397Z,94799.38
2022-12-16T09:21:54.828Z,94753.31
2022-12-16T09:24:40.827Z,94790.25
2022-12-16T09:27:26.259Z,94790.41
2022-12-16T09:30:11.815Z,94818.78
2022-12-16T09:33:02.531Z,94783.59
2022-12-16T09:35:48.582Z,94789.47
2022-12-16T09:38:35.981Z,94778.88
2022-12-16T09:41:46.725Z,94804.59
2022-12-16T09:44:49.248Z,94799.41
2022-12-16T09:47:41.231Z,94795.34
2022-12-16T09:50:38.329Z,94795.13
2022-12-16T09:53:28.392Z,94741.44
2022-12-16T09:56:15.450Z,94780.72
2022-12-16T09:59:18.543Z,94749.06
2022-12-16T10:02:04.748Z,94752.53
2022-12-16T10:04:51.051Z,94798.59
2022-12-16T10:07:42.135Z,94761.63
2022-12-16T10:10:36.403Z,94792.53
2022-12-16T10:13:49.699Z,94794.84
2022-12-16T10:16:38.519Z,94781.63
2022-12-16T10:19:36.043Z,94804.97
2022-12-16T10:22:46.531Z,94775.72
2022-12-16T10:25:35.361Z,94781.31
2022-12-16T10:28:37.487Z,94753.97
2022-12-16T10:31:32.250Z,94722.81
2022-12-16T10:34:17.767Z,94741.88
2022-12-16T10:37:11.681Z,94720.25
2022-12-16T10:40:07.850Z,94722.59
2022-12-16T10:43:00.366Z,94757.13
2022-12-16T10:45:53.744Z,94728.25
2022-12-16T10:48:56.735Z,94748.47
2022-12-16T10:51:47.049Z,94744.19
2022-12-16T10:54:38.744Z,94737.53
2022-12-16T10:57:33.783Z,94742.25
2022-12-16T11:00:32.856Z,94752.00
2022-12-16T11:03:42.797Z,94741.56
2022-12-16T11:06:29.671Z,94728.84
2022-12-16T11:09:15.340Z,94755.72
2022-12-16T11:12:01.452Z,94756.53
2022-12-16T11:15:12.708Z,94709.94
2022-12-16T11:17:56.071Z,94675.09
2022-12-16T11:20:44.259Z,94715.03
2022-12-16T11:23:45.160Z,94736.28
2022-12-16T11:26:38.448Z,94719.47
2022-12-16T11:29:25.620Z,94715.78
2022-12-16T11:32:42.661Z,94734.00
2022-12-16T11:35:37.739Z,94733.56
2022-12-16T11:38:29.684Z,94731.56
2022-12-16T11:41:16.847Z,94704.06
2022-12-16T11:44:05.992Z,94710.91
2022-12-16T11:46:51.920Z,94724.31
2022-12-16T11:49:51.967Z,94653.13
2022-12-16T11:52:40.569Z,94688.25
2022-12-16T11:59:01.270Z,94717.31
2022-12-16T12:02:05.963Z,94667.56
2022-12-16T12:04:51.452Z,94654.22
2022-12-16T12:07:45.809Z,94689.91
2022-12-16T12:10:38.174Z,94700.09
2022-12-16T12:13:58.877Z,94656.47
2022-12-16T12:16:59.313Z,94688.66
2022-12-16T12:20:06.390Z,94685.44
2022-12-16T12:22:57.514Z,94674.75
2022-12-16T12:26:02.244Z,94668.09
2022-12-16T12:28:54.269Z,94683.34
2022-12-16T12:32:14.940Z,94667.53
2022-12-16T12:35:19.850Z,94677.19
2022-12-16T12:38:11.028Z,94647.47
2022-12-16T12:41:03.829Z,94675.06
2022-12-16T12:44:07.164Z,94657.66
2022-12-16T12:47:16.653Z,94664.91
2022-12-16T12:50:14.136Z,94645.88
2022-12-16T12:53:43.061Z,94680.47
2022-12-16T12:57:16.158Z,94671.34
2022-12-16T13:00:37.181Z,94674.03
2022-12-16T13:03:55.973Z,94666.00
2022-12-16T13:06:42.699Z,94661.19
2022-12-16T13:09:48.297Z,94678.56
2022-12-16T13:12:34.282Z,94665.44
2022-12-16T13:15:25.639Z,94653.09
2022-12-16T13:18:20.460Z,94646.13
2022-12-16T13:21:06.571Z,94663.25
2022-12-16T13:23:57.780Z,94629.25
2022-12-16T13:26:45.994Z,94658.22
2022-12-16T13:29:46.895Z,94650.97
2022-12-16T13:32:38.521Z,94662.22
2022-12-16T13:35:27.122Z,94652.28
2022-12-16T13:38:14.377Z,94668.34
2022-12-16T13:41:17.197Z,94642.91
2022-12-16T13:44:21.790Z,94656.09
2022-12-16T13:47:13.350Z,94653.63
2022-12-16T13:50:05.741Z,94603.84
2022-12-16T13:53:07.351Z,94685.81
2022-12-16T13:56:05.121Z,94680.19
2022-12-16T13:59:12.987Z,94663.34
2022-12-16T14:02:31.274Z,94680.47
2022-12-16T14:05:17.575Z,94607.84
2022-12-16T14:08:03.907Z,94667.06
2022-12-16T14:10:53.300Z,94686.91
2022-12-16T14:13:47.601Z,94723.06
2022-12-16T14:17:02.642Z,94706.19
2022-12-16T14:19:53.625Z,94699.19
2022-12-16T14:22:54.811Z,94712.09
2022-12-16T14:25:42.138Z,94699.19
2022-12-16T14:28:55.017Z,94720.09
2022-12-16T14:31:49.130Z,94703.19
2022-12-16T14:35:04.619Z,94728.38
2022-12-16T14:37:55.947Z,94721.13
2022-12-16T14:40:43.241Z,94706.66
2022-12-16T14:43:35.524Z,94709.53
2022-12-16T14:46:22.212Z,94707.94
2022-12-16T14:49:09.570Z,94700.94
2022-12-16T14:52:06.400Z,94710.88
2022-12-16T14:54:57.990Z,94708.69
2022-12-16T14:57:46.117Z,94697.69
2022-12-16T15:00:42.471Z,94644.59
2022-12-16T15:03:48.355Z,94701.72
2022-12-16T15:07:02.043Z,94705.94
2022-12-16T15:09:55.893Z,94709.19
2022-12-16T15:12:48.187Z,94699.50
2022-12-16T15:15:49.743Z,94718.94
2022-12-16T15:18:40.554Z,94714.69
2022-12-16T15:21:27.170Z,94672.00
2022-12-16T15:24:13.265Z,94689.06
2022-12-16T15:26:59.341Z,94671.88
2022-12-16T15:29:53.309Z,94722.84
2022-12-16T15:32:44.684Z,94717.25
2022-12-16T15:35:50.030Z,94744.19
2022-12-16T15:38:54.310Z,94668.31
2022-12-16T15:41:50.133Z,94661.66
2022-12-16T15:44:41.734Z,94738.97
2022-12-16T15:47:53.230Z,94740.34
2022-12-16T15:50:47.129Z,94733.59
2022-12-16T15:53:55.179Z,94707.06
2022-12-16T15:56:46.480Z,94754.47
2022-12-16T15:59:50.342Z,94696.84
2022-12-16T16:02:41.316Z,94684.22
2022-12-16T16:05:39.719Z,94738.16
2022-12-16T16:08:25.833Z,94749.22
2022-12-16T16:11:11.732Z,94674.94
2022-12-16T16:14:02.924Z,94727.38
2022-12-16T16:16:51.880Z,94715.25
2022-12-16T16:19:43.104Z,94748.34
2022-12-16T16:22:34.203Z,94744.00
2022-12-16T16:25:20.399Z,94717.66
2022-12-16T16:28:06.246Z,94751.78
2022-12-16T16:30:51.894Z,94719.97
2022-12-16T16:33:37.791Z,94725.38
2022-12-16T16:36:34.356Z,94760.41
2022-12-16T16:39:20.398Z,94751.78
2022-12-16T16:42:06.069Z,94721.06
2022-12-16T16:44:51.641Z,94751.38
2022-12-16T16:47:37.920Z,94766.56
2022-12-16T16:50:25.503Z,94763.28
2022-12-16T16:53:11.676Z,94772.41
2022-12-16T16:55:57.983Z,94713.47
2022-12-16T16:58:50.286Z,94723.47
2022-12-16T17:01:37.350Z,94755.69
2022-12-16T17:04:23.405Z,94740.69
2022-12-16T17:07:09.039Z,94753.97
2022-12-16T17:12:53.906Z,94773.88
2022-12-16T17:15:54.412Z,94768.75
2022-12-16T17:18:46.589Z,94612.63
2022-12-16T17:21:33.253Z,94749.09
2022-12-16T17:24:19.150Z,94653.91
2022-12-16T17:27:09.118Z,94676.59
2022-12-16T17:29:55.906Z,94679.06
2022-12-16T17:32:49.087Z,94745.28
2022-12-16T17:35:36.175Z,94768.47
2022-12-16T17:38:22.101Z,94751.75
2022-12-16T17:41:11.082Z,94733.63
2022-12-16T17:43:58.765Z,94752.28
2022-12-16T17:46:44.229Z,94780.06
2022-12-16T17:49:30.291Z,94745.56
2022-12-16T17:52:17.150Z,94665.94
2022-12-16T17:55:02.721Z,94710.81
2022-12-16T17:57:49.013Z,94790.44
2022-12-16T18:00:35.420Z,94773.38
2022-12-16T18:03:22.466Z,94763.03
2022-12-16T18:06:15.542Z,94714.47
2022-12-16T18:09:01.156Z,94773.09
2022-12-16T18:11:46.903Z,94778.91
2022-12-16T18:14:32.485Z,94766.31
2022-12-16T18:17:18.216Z,94772.94
2022-12-16T18:20:04.095Z,94720.09
2022-12-16T18:22:50.102Z,94751.34
2022-12-16T18:25:35.949Z,94793.44
2022-12-16T18:28:22.330Z,94768.59
2022-12-16T18:31:07.964Z,94774.00
2022-12-16T18:33:53.653Z,94702.53
2022-12-16T18:36:39.487Z,94793.75
2022-12-16T18:39:25.013Z,94802.66
2022-12-16T18:42:10.910Z,94747.03
2022-12-16T18:45:01.019Z,94766.09
2022-12-16T18:47:49.402Z,94754.47
2022-12-16T18:50:37.974Z,94787.00
2022-12-16T18:53:27.767Z,94796.19
2022-12-16T18:56:21.176Z,94830.91
2022-12-16T18:59:07.041Z,94806.84
2022-12-16T19:01:57.422Z,94796.44
2022-12-16T19:04:43.617Z,94826.78
2022-12-16T19:07:33.378Z,94771.88
2022-12-16T19:10:19.623Z,94797.69
2022-12-16T19:13:05.048Z,94814.06
2022-12-16T19:15:51.262Z,94773.94
2022-12-16T19:18:37.427Z,94766.19
2022-12-16T19:21:23.433Z,94806.31
2022-12-16T19:24:09.374Z,94756.72
2022-12-16T19:26:56.558Z,94812.19
2022-12-16T19:29:43.061Z,94787.88
2022-12-16T19:32:28.971Z,94846.56
2022-12-16T19:35:14.661Z,94858.66
2022-12-16T19:38:00.692Z,94834.66
2022-12-16T19:41:12.575Z,94847.91
2022-12-16T19:44:03.626Z,94853.22
2022-12-16T19:46:51.725Z,94789.25
2022-12-16T19:49:43.786Z,94748.72
2022-12-16T19:52:30.120Z,94856.16
2022-12-16T19:58:20.892Z,94882.97
2022-12-16T20:01:06.873Z,94784.22
2022-12-16T20:03:55.251Z,94880.31
2022-12-16T20:06:42.394Z,94834.56
2022-12-16T20:09:28.103Z,94843.34
2022-12-16T20:12:16.224Z,94831.56
2022-12-16T20:15:01.468Z,94852.91
2022-12-16T20:17:50.458Z,94800.34
2022-12-16T20:20:38.004Z,94809.13
2022-12-16T20:23:23.677Z,94789.97
2022-12-16T20:26:17.423Z,94825.91
2022-12-16T20:29:03.671Z,94835.88
2022-12-16T20:31:52.521Z,94875.59
2022-12-16T20:34:41.454Z,94864.50
2022-12-16T20:37:27.122Z,94839.66
2022-12-16T20:40:13.470Z,94823.97
2022-12-16T20:42:59.036Z,94834.09
2022-12-16T20:45:44.680Z,94756.00
2022-12-16T20:48:35.138Z,94759.31
2022-12-16T20:51:26.546Z,94871.91
2022-12-16T20:54:13.196Z,94838.78
2022-12-16T20:56:59.657Z,94683.41
2022-12-16T20:59:45.305Z,94758.19
2022-12-16T21:02:34.103Z,94868.44
2022-12-16T21:05:21.276Z,94720.44
2022-12-16T21:08:06.843Z,94706.00
2022-12-16T21:10:52.451Z,94723.44
2022-12-16T21:13:41.737Z,94849.16
2022-12-16T21:16:30.329Z,94833.59
2022-12-16T21:19:16.387Z,94850.91
2022-12-16T21:22:02.063Z,94880.59
2022-12-16T21:24:47.542Z,94861.19
2022-12-16T21:27:33.193Z,94865.56
2022-12-16T21:30:18.710Z,94829.66
2022-12-16T21:33:04.822Z,94849.31
2022-12-16T21:35:50.864Z,94864.53
2022-12-16T21:38:37.948Z,94849.28
2022-12-16T21:41:24.098Z,94842.94
2022-12-16T21:44:10.648Z,94837.50
2022-12-16T21:46:56.046Z,94830.94
2022-12-16T21:49:42.298Z,94842.69
2022-12-16T21:52:27.913Z,94855.16
2022-12-16T21:55:14.372Z,94796.75
2022-12-16T21:58:05.578Z,94824.78
2022-12-16T22:00:58.860Z,94790.63
2022-12-16T22:03:52.299Z,94867.41
2022-12-16T22:06:38.437Z,94840.72
2022-12-16T22:09:24.090Z,94858.41
2022-12-16T22:12:10.632Z,94802.50
2022-12-16T22:14:56.588Z,94819.09
2022-12-16T22:18:02.343Z,94865.09
2022-12-16T22:20:47.775Z,94843.94
2022-12-16T22:23:34.225Z,94864.59
2022-12-16T22:26:20.810Z,94837.81
2022-12-16T22:29:06.463Z,94838.75
2022-12-16T22:31:52.263Z,94806.84
2022-12-16T22:34:38.048Z,94839.00
2022-12-16T22:36:20.429Z,94841.00
2022-12-16T22:37:23.819Z,94831.38
2022-12-16T22:40:09.125Z,94829.25
2022-12-16T22:42:56.300Z,94797.16
2022-12-16T22:45:42.104Z,94795.63
2022-12-16T22:48:31.440Z,94700.03
2022-12-16T22:51:16.855Z,94748.22
2022-12-16T22:54:06.910Z,94770.81
2022-12-16T22:56:52.669Z,94837.22
2022-12-16T22:59:42.142Z,94849.38
2022-12-16T23:02:28.307Z,94816.66
2022-12-16T23:05:13.796Z,94812.16
2022-12-16T23:07:59.445Z,94813.69
2022-12-16T23:10:45.642Z,94830.88
2022-12-16T23:13:32.219Z,94829.13
2022-12-16T23:16:17.712Z,94822.47
2022-12-16T23:19:03.563Z,94811.81
2022-12-16T23:21:49.031Z,94808.97
2022-12-16T23:24:34.661Z,94812.66
2022-12-16T23:27:20.379Z,94812.44
2022-12-16T23:30:06.006Z,94801.81
2022-12-16T23:32:51.353Z,94802.84
2022-12-16T23:35:39.148Z,94734.94
2022-12-16T23:38:25.593Z,94748.00
2022-12-16T23:41:15.564Z,94733.41
2022-12-16T23:44:01.632Z,94787.22
2022-12-16T23:46:47.899Z,94692.00
2022-12-16T23:49:33.697Z,94765.09
2022-12-16T23:52:19.547Z,94782.38
2022-12-16T23:55:05.058Z,94721.47
2022-12-16T23:57:50.624Z,94711.38
